sensor_id;sensor_type;location;lat;lon;timestamp;P1;durP1;ratioP1;P2;durP2;ratioP2
13927;SDS011;7036;50.834;4.718;2023-06-14T00:01:16;3.13;;;2.93;;
13927;SDS011;7036;50.834;4.718;2023-06-14T00:03:43;3.80;;;3.50;;
13927;SDS011;7036;50.834;4.718;2023-06-14T00:06:10;3.33;;;2.93;;
13927;SDS011;7036;50.834;4.718;2023-06-14T00:08:38;3.93;;;3.53;;
13927;SDS011;7036;50.834;4.718;2023-06-14T00:11:05;3.30;;;3.00;;
13927;SDS011;7036;50.834;4.718;2023-06-14T00:13:32;3.33;;;3.03;;
13927;SDS011;7036;50.834;4.718;2023-06-14T00:15:58;3.13;;;2.93;;
13927;SDS011;7036;50.834;4.718;2023-06-14T00:18:26;3.30;;;3.00;;
13927;SDS011;7036;50.834;4.718;2023-06-14T00:20:53;4.10;;;3.50;;
13927;SDS011;7036;50.834;4.718;2023-06-14T00:23:20;3.83;;;2.90;;
13927;SDS011;7036;50.834;4.718;2023-06-14T00:25:47;3.97;;;3.43;;
13927;SDS011;7036;50.834;4.718;2023-06-14T00:28:14;3.90;;;3.57;;
13927;SDS011;7036;50.834;4.718;2023-06-14T00:30:41;4.13;;;3.00;;
13927;SDS011;7036;50.834;4.718;2023-06-14T00:33:08;4.27;;;3.33;;
13927;SDS011;7036;50.834;4.718;2023-06-14T00:35:35;4.80;;;3.37;;
13927;SDS011;7036;50.834;4.718;2023-06-14T00:38:02;4.87;;;3.50;;
13927;SDS011;7036;50.834;4.718;2023-06-14T00:40:29;4.00;;;3.60;;
13927;SDS011;7036;50.834;4.718;2023-06-14T00:42:55;3.33;;;3.03;;
13927;SDS011;7036;50.834;4.718;2023-06-14T00:45:22;3.60;;;3.30;;
13927;SDS011;7036;50.834;4.718;2023-06-14T00:47:49;4.63;;;3.03;;
13927;SDS011;7036;50.834;4.718;2023-06-14T00:50:17;3.80;;;3.30;;
13927;SDS011;7036;50.834;4.718;2023-06-14T00:52:44;3.20;;;3.00;;
13927;SDS011;7036;50.834;4.718;2023-06-14T00:55:11;3.50;;;3.10;;
13927;SDS011;7036;50.834;4.718;2023-06-14T00:57:38;4.83;;;3.93;;
13927;SDS011;7036;50.834;4.718;2023-06-14T01:00:04;4.43;;;3.67;;
13927;SDS011;7036;50.834;4.718;2023-06-14T01:02:32;3.30;;;3.00;;
13927;SDS011;7036;50.834;4.718;2023-06-14T01:04:59;3.63;;;3.20;;
13927;SDS011;7036;50.834;4.718;2023-06-14T01:12:39;5.27;;;3.40;;
13927;SDS011;7036;50.834;4.718;2023-06-14T01:15:22;4.67;;;3.30;;
13927;SDS011;7036;50.834;4.718;2023-06-14T01:17:49;3.33;;;3.03;;
13927;SDS011;7036;50.834;4.718;2023-06-14T01:20:16;3.50;;;2.93;;
13927;SDS011;7036;50.834;4.718;2023-06-14T01:22:52;3.33;;;3.03;;
13927;SDS011;7036;50.834;4.718;2023-06-14T01:25:10;4.10;;;2.87;;
13927;SDS011;7036;50.834;4.718;2023-06-14T01:27:36;3.57;;;3.27;;
13927;SDS011;7036;50.834;4.718;2023-06-14T01:30:03;3.43;;;3.13;;
13927;SDS011;7036;50.834;4.718;2023-06-14T01:32:31;3.70;;;2.90;;
13927;SDS011;7036;50.834;4.718;2023-06-14T01:34:58;3.83;;;3.23;;
13927;SDS011;7036;50.834;4.718;2023-06-14T01:37:25;2.73;;;2.53;;
13927;SDS011;7036;50.834;4.718;2023-06-14T01:39:52;4.57;;;3.67;;
13927;SDS011;7036;50.834;4.718;2023-06-14T01:42:19;3.73;;;3.40;;
13927;SDS011;7036;50.834;4.718;2023-06-14T01:44:45;3.83;;;3.37;;
13927;SDS011;7036;50.834;4.718;2023-06-14T01:47:13;3.20;;;2.90;;
13927;SDS011;7036;50.834;4.718;2023-06-14T01:49:40;3.33;;;3.00;;
13927;SDS011;7036;50.834;4.718;2023-06-14T01:52:07;3.50;;;3.20;;
13927;SDS011;7036;50.834;4.718;2023-06-14T01:54:33;3.57;;;3.13;;
13927;SDS011;7036;50.834;4.718;2023-06-14T01:57:00;5.53;;;3.13;;
13927;SDS011;7036;50.834;4.718;2023-06-14T01:59:28;3.50;;;3.20;;
13927;SDS011;7036;50.834;4.718;2023-06-14T02:01:55;3.20;;;2.90;;
13927;SDS011;7036;50.834;4.718;2023-06-14T02:04:22;3.30;;;3.00;;
13927;SDS011;7036;50.834;4.718;2023-06-14T02:06:49;3.43;;;3.13;;
13927;SDS011;7036;50.834;4.718;2023-06-14T02:09:16;3.47;;;3.13;;
13927;SDS011;7036;50.834;4.718;2023-06-14T02:11:43;7.73;;;3.57;;
13927;SDS011;7036;50.834;4.718;2023-06-14T02:14:10;6.17;;;3.20;;
13927;SDS011;7036;50.834;4.718;2023-06-14T02:16:37;4.83;;;3.43;;
13927;SDS011;7036;50.834;4.718;2023-06-14T02:19:04;4.30;;;3.17;;
13927;SDS011;7036;50.834;4.718;2023-06-14T02:21:30;3.50;;;3.20;;
13927;SDS011;7036;50.834;4.718;2023-06-14T02:23:57;3.80;;;2.93;;
13927;SDS011;7036;50.834;4.718;2023-06-14T02:26:24;4.27;;;2.87;;
13927;SDS011;7036;50.834;4.718;2023-06-14T02:28:51;5.00;;;2.73;;
13927;SDS011;7036;50.834;4.718;2023-06-14T02:31:18;3.50;;;3.20;;
13927;SDS011;7036;50.834;4.718;2023-06-14T02:33:45;3.50;;;3.20;;
13927;SDS011;7036;50.834;4.718;2023-06-14T02:36:13;3.50;;;3.20;;
13927;SDS011;7036;50.834;4.718;2023-06-14T02:38:40;3.77;;;3.07;;
13927;SDS011;7036;50.834;4.718;2023-06-14T02:41:07;4.00;;;3.60;;
13927;SDS011;7036;50.834;4.718;2023-06-14T02:43:34;6.57;;;3.27;;
13927;SDS011;7036;50.834;4.718;2023-06-14T02:46:01;4.67;;;3.43;;
13927;SDS011;7036;50.834;4.718;2023-06-14T02:48:29;4.07;;;3.07;;
13927;SDS011;7036;50.834;4.718;2023-06-14T02:50:56;6.63;;;3.33;;
13927;SDS011;7036;50.834;4.718;2023-06-14T02:53:23;4.20;;;3.13;;
13927;SDS011;7036;50.834;4.718;2023-06-14T02:55:50;3.50;;;3.23;;
13927;SDS011;7036;50.834;4.718;2023-06-14T02:58:17;3.30;;;3.00;;
13927;SDS011;7036;50.834;4.718;2023-06-14T03:00:44;3.10;;;2.90;;
13927;SDS011;7036;50.834;4.718;2023-06-14T03:03:12;3.60;;;3.30;;
13927;SDS011;7036;50.834;4.718;2023-06-14T03:05:41;4.17;;;2.97;;
13927;SDS011;7036;50.834;4.718;2023-06-14T03:08:09;3.10;;;2.80;;
13927;SDS011;7036;50.834;4.718;2023-06-14T03:10:37;3.73;;;3.13;;
13927;SDS011;7036;50.834;4.718;2023-06-14T03:13:03;3.13;;;2.70;;
13927;SDS011;7036;50.834;4.718;2023-06-14T03:15:31;3.00;;;2.70;;
13927;SDS011;7036;50.834;4.718;2023-06-14T03:17:58;4.73;;;3.10;;
13927;SDS011;7036;50.834;4.718;2023-06-14T03:20:26;3.40;;;3.10;;
13927;SDS011;7036;50.834;4.718;2023-06-14T03:22:52;3.63;;;3.33;;
13927;SDS011;7036;50.834;4.718;2023-06-14T03:25:19;3.10;;;2.90;;
13927;SDS011;7036;50.834;4.718;2023-06-14T03:27:46;3.40;;;3.10;;
13927;SDS011;7036;50.834;4.718;2023-06-14T03:30:13;3.90;;;3.60;;
13927;SDS011;7036;50.834;4.718;2023-06-14T03:32:40;3.47;;;3.17;;
13927;SDS011;7036;50.834;4.718;2023-06-14T03:35:07;3.63;;;3.33;;
13927;SDS011;7036;50.834;4.718;2023-06-14T03:37:34;3.20;;;2.97;;
13927;SDS011;7036;50.834;4.718;2023-06-14T03:40:01;4.60;;;2.97;;
13927;SDS011;7036;50.834;4.718;2023-06-14T03:42:28;2.90;;;2.70;;
13927;SDS011;7036;50.834;4.718;2023-06-14T03:44:55;3.33;;;2.93;;
13927;SDS011;7036;50.834;4.718;2023-06-14T03:47:22;3.43;;;3.13;;
13927;SDS011;7036;50.834;4.718;2023-06-14T03:49:49;3.27;;;2.97;;
13927;SDS011;7036;50.834;4.718;2023-06-14T03:52:16;5.17;;;3.57;;
13927;SDS011;7036;50.834;4.718;2023-06-14T03:54:43;3.37;;;3.03;;
13927;SDS011;7036;50.834;4.718;2023-06-14T03:57:10;4.00;;;3.60;;
13927;SDS011;7036;50.834;4.718;2023-06-14T03:59:36;4.43;;;3.20;;
13927;SDS011;7036;50.834;4.718;2023-06-14T04:02:03;3.27;;;2.80;;
13927;SDS011;7036;50.834;4.718;2023-06-14T04:04:30;4.03;;;3.20;;
13927;SDS011;7036;50.834;4.718;2023-06-14T04:06:57;3.50;;;3.20;;
13927;SDS011;7036;50.834;4.718;2023-06-14T04:09:24;4.57;;;3.83;;
13927;SDS011;7036;50.834;4.718;2023-06-14T04:11:52;4.43;;;3.27;;
13927;SDS011;7036;50.834;4.718;2023-06-14T04:14:19;3.67;;;3.37;;
13927;SDS011;7036;50.834;4.718;2023-06-14T04:16:46;5.63;;;3.67;;
13927;SDS011;7036;50.834;4.718;2023-06-14T04:19:15;3.17;;;2.87;;
13927;SDS011;7036;50.834;4.718;2023-06-14T04:21:42;4.20;;;3.50;;
13927;SDS011;7036;50.834;4.718;2023-06-14T04:24:09;3.47;;;3.17;;
13927;SDS011;7036;50.834;4.718;2023-06-14T04:26:39;3.50;;;3.20;;
13927;SDS011;7036;50.834;4.718;2023-06-14T04:29:07;5.30;;;3.40;;
13927;SDS011;7036;50.834;4.718;2023-06-14T04:31:34;3.70;;;3.40;;
13927;SDS011;7036;50.834;4.718;2023-06-14T04:34:01;4.87;;;3.70;;
13927;SDS011;7036;50.834;4.718;2023-06-14T04:36:28;6.60;;;3.30;;
13927;SDS011;7036;50.834;4.718;2023-06-14T04:38:55;3.53;;;3.00;;
13927;SDS011;7036;50.834;4.718;2023-06-14T04:41:22;4.10;;;3.27;;
13927;SDS011;7036;50.834;4.718;2023-06-14T04:43:49;3.47;;;2.93;;
13927;SDS011;7036;50.834;4.718;2023-06-14T04:46:16;3.73;;;3.00;;
13927;SDS011;7036;50.834;4.718;2023-06-14T04:48:43;5.57;;;3.97;;
13927;SDS011;7036;50.834;4.718;2023-06-14T04:51:10;4.23;;;3.73;;
13927;SDS011;7036;50.834;4.718;2023-06-14T04:53:37;3.67;;;3.30;;
13927;SDS011;7036;50.834;4.718;2023-06-14T04:56:04;3.70;;;3.30;;
13927;SDS011;7036;50.834;4.718;2023-06-14T04:58:31;3.00;;;2.80;;
13927;SDS011;7036;50.834;4.718;2023-06-14T05:00:57;3.73;;;3.43;;
13927;SDS011;7036;50.834;4.718;2023-06-14T05:03:25;3.67;;;3.30;;
13927;SDS011;7036;50.834;4.718;2023-06-14T05:05:51;3.50;;;3.20;;
13927;SDS011;7036;50.834;4.718;2023-06-14T05:08:19;4.07;;;3.67;;
13927;SDS011;7036;50.834;4.718;2023-06-14T05:10:45;3.53;;;3.23;;
13927;SDS011;7036;50.834;4.718;2023-06-14T05:13:12;3.97;;;3.57;;
13927;SDS011;7036;50.834;4.718;2023-06-14T05:15:39;4.67;;;3.60;;
13927;SDS011;7036;50.834;4.718;2023-06-14T05:18:06;5.13;;;3.10;;
13927;SDS011;7036;50.834;4.718;2023-06-14T05:20:33;5.20;;;3.47;;
13927;SDS011;7036;50.834;4.718;2023-06-14T05:23:00;4.37;;;3.13;;
13927;SDS011;7036;50.834;4.718;2023-06-14T05:25:27;3.87;;;3.50;;
13927;SDS011;7036;50.834;4.718;2023-06-14T05:27:54;3.27;;;3.00;;
13927;SDS011;7036;50.834;4.718;2023-06-14T05:30:21;3.03;;;2.80;;
13927;SDS011;7036;50.834;4.718;2023-06-14T05:32:48;3.83;;;3.53;;
13927;SDS011;7036;50.834;4.718;2023-06-14T05:35:14;3.27;;;2.77;;
13927;SDS011;7036;50.834;4.718;2023-06-14T05:37:41;3.43;;;3.13;;
13927;SDS011;7036;50.834;4.718;2023-06-14T05:40:08;4.03;;;3.63;;
13927;SDS011;7036;50.834;4.718;2023-06-14T05:42:36;4.47;;;3.70;;
13927;SDS011;7036;50.834;4.718;2023-06-14T05:45:03;4.17;;;3.50;;
13927;SDS011;7036;50.834;4.718;2023-06-14T05:47:30;3.90;;;3.50;;
13927;SDS011;7036;50.834;4.718;2023-06-14T05:49:57;4.27;;;3.10;;
13927;SDS011;7036;50.834;4.718;2023-06-14T05:52:23;3.57;;;3.27;;
13927;SDS011;7036;50.834;4.718;2023-06-14T05:54:50;4.50;;;3.43;;
13927;SDS011;7036;50.834;4.718;2023-06-14T05:57:17;3.63;;;2.93;;
13927;SDS011;7036;50.834;4.718;2023-06-14T05:59:44;3.93;;;3.60;;
13927;SDS011;7036;50.834;4.718;2023-06-14T06:02:11;4.23;;;3.67;;
13927;SDS011;7036;50.834;4.718;2023-06-14T06:04:38;3.57;;;3.27;;
13927;SDS011;7036;50.834;4.718;2023-06-14T06:07:05;4.13;;;3.73;;
13927;SDS011;7036;50.834;4.718;2023-06-14T06:09:32;4.13;;;3.40;;
13927;SDS011;7036;50.834;4.718;2023-06-14T06:11:59;3.57;;;2.97;;
13927;SDS011;7036;50.834;4.718;2023-06-14T06:14:26;3.47;;;3.17;;
13927;SDS011;7036;50.834;4.718;2023-06-14T06:16:53;3.53;;;3.00;;
13927;SDS011;7036;50.834;4.718;2023-06-14T06:19:20;3.60;;;3.30;;
13927;SDS011;7036;50.834;4.718;2023-06-14T06:21:47;4.13;;;3.30;;
13927;SDS011;7036;50.834;4.718;2023-06-14T06:24:14;3.63;;;2.73;;
13927;SDS011;7036;50.834;4.718;2023-06-14T06:26:41;3.77;;;3.33;;
13927;SDS011;7036;50.834;4.718;2023-06-14T06:29:07;3.60;;;3.27;;
13927;SDS011;7036;50.834;4.718;2023-06-14T06:31:34;3.53;;;3.23;;
13927;SDS011;7036;50.834;4.718;2023-06-14T06:34:01;3.70;;;3.40;;
13927;SDS011;7036;50.834;4.718;2023-06-14T06:36:29;3.13;;;2.83;;
13927;SDS011;7036;50.834;4.718;2023-06-14T06:38:56;3.57;;;3.27;;
13927;SDS011;7036;50.834;4.718;2023-06-14T06:41:24;4.60;;;3.60;;
13927;SDS011;7036;50.834;4.718;2023-06-14T06:43:50;3.23;;;2.93;;
13927;SDS011;7036;50.834;4.718;2023-06-14T06:46:17;3.37;;;3.07;;
13927;SDS011;7036;50.834;4.718;2023-06-14T06:48:44;3.47;;;3.17;;
13927;SDS011;7036;50.834;4.718;2023-06-14T06:51:11;2.80;;;2.60;;
13927;SDS011;7036;50.834;4.718;2023-06-14T06:53:39;2.90;;;2.70;;
13927;SDS011;7036;50.834;4.718;2023-06-14T06:56:05;4.07;;;3.67;;
13927;SDS011;7036;50.834;4.718;2023-06-14T06:58:32;3.03;;;2.70;;
13927;SDS011;7036;50.834;4.718;2023-06-14T07:01:00;3.43;;;3.13;;
13927;SDS011;7036;50.834;4.718;2023-06-14T07:03:27;3.23;;;2.87;;
13927;SDS011;7036;50.834;4.718;2023-06-14T07:05:54;3.20;;;2.90;;
13927;SDS011;7036;50.834;4.718;2023-06-14T07:08:21;3.63;;;3.30;;
13927;SDS011;7036;50.834;4.718;2023-06-14T07:10:48;3.03;;;2.83;;
13927;SDS011;7036;50.834;4.718;2023-06-14T07:13:14;4.87;;;3.20;;
13927;SDS011;7036;50.834;4.718;2023-06-14T07:15:41;2.83;;;2.60;;
13927;SDS011;7036;50.834;4.718;2023-06-14T07:18:09;3.13;;;2.83;;
13927;SDS011;7036;50.834;4.718;2023-06-14T07:20:36;3.50;;;2.90;;
13927;SDS011;7036;50.834;4.718;2023-06-14T07:23:06;3.27;;;2.97;;
13927;SDS011;7036;50.834;4.718;2023-06-14T07:25:33;3.30;;;3.00;;
13927;SDS011;7036;50.834;4.718;2023-06-14T07:28:00;3.93;;;3.57;;
13927;SDS011;7036;50.834;4.718;2023-06-14T07:30:27;4.93;;;3.77;;
13927;SDS011;7036;50.834;4.718;2023-06-14T07:32:54;6.83;;;4.67;;
13927;SDS011;7036;50.834;4.718;2023-06-14T07:35:20;4.37;;;3.97;;
13927;SDS011;7036;50.834;4.718;2023-06-14T07:37:47;3.73;;;3.43;;
13927;SDS011;7036;50.834;4.718;2023-06-14T07:40:14;11.13;;;3.77;;
13927;SDS011;7036;50.834;4.718;2023-06-14T07:42:41;7.13;;;4.53;;
13927;SDS011;7036;50.834;4.718;2023-06-14T07:45:08;9.40;;;4.40;;
13927;SDS011;7036;50.834;4.718;2023-06-14T07:47:35;5.97;;;4.33;;
13927;SDS011;7036;50.834;4.718;2023-06-14T07:50:02;3.93;;;3.60;;
13927;SDS011;7036;50.834;4.718;2023-06-14T07:52:29;8.27;;;4.10;;
13927;SDS011;7036;50.834;4.718;2023-06-14T07:54:56;4.33;;;3.93;;
13927;SDS011;7036;50.834;4.718;2023-06-14T07:57:23;4.40;;;4.03;;
13927;SDS011;7036;50.834;4.718;2023-06-14T07:59:50;5.67;;;3.83;;
13927;SDS011;7036;50.834;4.718;2023-06-14T08:02:17;4.60;;;3.93;;
13927;SDS011;7036;50.834;4.718;2023-06-14T08:04:44;4.83;;;3.77;;
13927;SDS011;7036;50.834;4.718;2023-06-14T08:07:11;6.10;;;3.70;;
13927;SDS011;7036;50.834;4.718;2023-06-14T08:09:38;6.10;;;4.77;;
13927;SDS011;7036;50.834;4.718;2023-06-14T08:12:05;8.97;;;4.10;;
13927;SDS011;7036;50.834;4.718;2023-06-14T08:14:32;9.37;;;4.50;;
13927;SDS011;7036;50.834;4.718;2023-06-14T08:16:59;14.63;;;4.53;;
13927;SDS011;7036;50.834;4.718;2023-06-14T08:19:26;5.90;;;4.43;;
13927;SDS011;7036;50.834;4.718;2023-06-14T08:21:53;6.57;;;4.77;;
13927;SDS011;7036;50.834;4.718;2023-06-14T08:24:21;5.07;;;3.73;;
13927;SDS011;7036;50.834;4.718;2023-06-14T08:26:47;8.10;;;4.13;;
13927;SDS011;7036;50.834;4.718;2023-06-14T08:29:13;9.27;;;4.77;;
13927;SDS011;7036;50.834;4.718;2023-06-14T08:31:40;6.57;;;4.43;;
13927;SDS011;7036;50.834;4.718;2023-06-14T08:34:07;5.23;;;4.73;;
13927;SDS011;7036;50.834;4.718;2023-06-14T08:36:37;8.53;;;4.67;;
13927;SDS011;7036;50.834;4.718;2023-06-14T08:39:04;4.37;;;3.97;;
13927;SDS011;7036;50.834;4.718;2023-06-14T08:41:31;6.73;;;3.83;;
13927;SDS011;7036;50.834;4.718;2023-06-14T08:43:57;8.93;;;4.97;;
13927;SDS011;7036;50.834;4.718;2023-06-14T08:46:25;7.77;;;4.03;;
13927;SDS011;7036;50.834;4.718;2023-06-14T08:48:52;5.80;;;4.63;;
13927;SDS011;7036;50.834;4.718;2023-06-14T08:51:18;6.73;;;4.77;;
13927;SDS011;7036;50.834;4.718;2023-06-14T08:53:45;8.50;;;5.17;;
13927;SDS011;7036;50.834;4.718;2023-06-14T08:56:12;5.40;;;4.10;;
13927;SDS011;7036;50.834;4.718;2023-06-14T08:58:43;4.30;;;3.87;;
13927;SDS011;7036;50.834;4.718;2023-06-14T09:01:09;7.87;;;4.33;;
13927;SDS011;7036;50.834;4.718;2023-06-14T09:03:37;5.90;;;4.30;;
13927;SDS011;7036;50.834;4.718;2023-06-14T09:06:03;5.07;;;4.57;;
13927;SDS011;7036;50.834;4.718;2023-06-14T09:08:30;4.43;;;4.03;;
13927;SDS011;7036;50.834;4.718;2023-06-14T09:10:57;4.70;;;3.83;;
13927;SDS011;7036;50.834;4.718;2023-06-14T09:13:24;5.50;;;4.20;;
13927;SDS011;7036;50.834;4.718;2023-06-14T09:15:51;5.20;;;4.10;;
13927;SDS011;7036;50.834;4.718;2023-06-14T09:18:19;8.87;;;4.77;;
13927;SDS011;7036;50.834;4.718;2023-06-14T09:20:46;6.83;;;5.00;;
13927;SDS011;7036;50.834;4.718;2023-06-14T09:23:13;6.37;;;4.27;;
13927;SDS011;7036;50.834;4.718;2023-06-14T09:25:43;7.93;;;4.77;;
13927;SDS011;7036;50.834;4.718;2023-06-14T09:28:12;5.93;;;4.13;;
13927;SDS011;7036;50.834;4.718;2023-06-14T09:30:39;5.90;;;3.80;;
13927;SDS011;7036;50.834;4.718;2023-06-14T09:33:07;6.63;;;4.70;;
13927;SDS011;7036;50.834;4.718;2023-06-14T09:35:33;4.90;;;4.40;;
13927;SDS011;7036;50.834;4.718;2023-06-14T09:38:00;5.67;;;4.60;;
13927;SDS011;7036;50.834;4.718;2023-06-14T09:40:27;6.10;;;4.37;;
13927;SDS011;7036;50.834;4.718;2023-06-14T09:42:54;5.33;;;4.60;;
13927;SDS011;7036;50.834;4.718;2023-06-14T09:45:21;9.73;;;5.13;;
13927;SDS011;7036;50.834;4.718;2023-06-14T09:47:50;5.97;;;4.30;;
13927;SDS011;7036;50.834;4.718;2023-06-14T09:50:15;6.07;;;4.77;;
13927;SDS011;7036;50.834;4.718;2023-06-14T09:52:43;5.70;;;4.07;;
13927;SDS011;7036;50.834;4.718;2023-06-14T09:55:11;6.73;;;4.67;;
13927;SDS011;7036;50.834;4.718;2023-06-14T09:57:36;4.13;;;3.73;;
13927;SDS011;7036;50.834;4.718;2023-06-14T10:00:03;6.30;;;4.60;;
13927;SDS011;7036;50.834;4.718;2023-06-14T10:02:31;9.13;;;4.67;;
13927;SDS011;7036;50.834;4.718;2023-06-14T10:05:09;11.40;;;4.37;;
13927;SDS011;7036;50.834;4.718;2023-06-14T10:07:40;6.30;;;4.93;;
13927;SDS011;7036;50.834;4.718;2023-06-14T10:10:06;6.77;;;4.80;;
13927;SDS011;7036;50.834;4.718;2023-06-14T10:12:32;7.60;;;4.47;;
13927;SDS011;7036;50.834;4.718;2023-06-14T10:14:59;6.23;;;4.60;;
13927;SDS011;7036;50.834;4.718;2023-06-14T10:23:01;11.53;;;5.60;;
13927;SDS011;7036;50.834;4.718;2023-06-14T10:25:29;12.70;;;4.67;;
13927;SDS011;7036;50.834;4.718;2023-06-14T10:27:56;13.47;;;5.83;;
13927;SDS011;7036;50.834;4.718;2023-06-14T10:30:25;11.10;;;5.53;;
13927;SDS011;7036;50.834;4.718;2023-06-14T10:33:03;12.97;;;6.10;;
13927;SDS011;7036;50.834;4.718;2023-06-14T10:35:35;9.43;;;4.07;;
13927;SDS011;7036;50.834;4.718;2023-06-14T10:38:08;6.23;;;4.40;;
13927;SDS011;7036;50.834;4.718;2023-06-14T10:40:34;18.83;;;4.47;;
13927;SDS011;7036;50.834;4.718;2023-06-14T10:43:06;10.30;;;5.20;;
13927;SDS011;7036;50.834;4.718;2023-06-14T10:45:28;10.43;;;5.23;;
13927;SDS011;7036;50.834;4.718;2023-06-14T10:47:56;17.00;;;4.67;;
13927;SDS011;7036;50.834;4.718;2023-06-14T10:50:27;19.77;;;5.53;;
13927;SDS011;7036;50.834;4.718;2023-06-14T10:52:49;11.77;;;4.40;;
13927;SDS011;7036;50.834;4.718;2023-06-14T10:55:17;8.00;;;4.90;;
13927;SDS011;7036;50.834;4.718;2023-06-14T10:57:56;6.43;;;4.43;;
13927;SDS011;7036;50.834;4.718;2023-06-14T11:00:23;5.77;;;3.93;;
13927;SDS011;7036;50.834;4.718;2023-06-14T11:05:53;6.30;;;3.53;;
13927;SDS011;7036;50.834;4.718;2023-06-14T11:11:08;7.53;;;4.03;;
13927;SDS011;7036;50.834;4.718;2023-06-14T11:13:37;15.33;;;4.60;;
13927;SDS011;7036;50.834;4.718;2023-06-14T11:16:14;4.87;;;4.07;;
13927;SDS011;7036;50.834;4.718;2023-06-14T11:18:37;9.67;;;4.37;;
13927;SDS011;7036;50.834;4.718;2023-06-14T11:21:04;9.23;;;4.17;;
13927;SDS011;7036;50.834;4.718;2023-06-14T11:23:31;9.70;;;3.80;;
13927;SDS011;7036;50.834;4.718;2023-06-14T11:25:59;14.87;;;4.07;;
13927;SDS011;7036;50.834;4.718;2023-06-14T11:28:35;13.80;;;4.07;;
13927;SDS011;7036;50.834;4.718;2023-06-14T11:31:03;19.07;;;5.17;;
13927;SDS011;7036;50.834;4.718;2023-06-14T11:33:28;10.90;;;4.37;;
13927;SDS011;7036;50.834;4.718;2023-06-14T11:35:55;8.07;;;3.90;;
13927;SDS011;7036;50.834;4.718;2023-06-14T11:38:22;8.43;;;4.20;;
13927;SDS011;7036;50.834;4.718;2023-06-14T11:40:49;7.17;;;4.07;;
13927;SDS011;7036;50.834;4.718;2023-06-14T11:43:16;9.10;;;4.43;;
13927;SDS011;7036;50.834;4.718;2023-06-14T11:45:43;4.90;;;3.63;;
13927;SDS011;7036;50.834;4.718;2023-06-14T11:48:10;4.27;;;3.47;;
13927;SDS011;7036;50.834;4.718;2023-06-14T11:50:37;4.37;;;3.17;;
13927;SDS011;7036;50.834;4.718;2023-06-14T11:53:04;7.40;;;3.90;;
13927;SDS011;7036;50.834;4.718;2023-06-14T11:55:30;5.70;;;3.77;;
13927;SDS011;7036;50.834;4.718;2023-06-14T11:57:57;8.67;;;3.80;;
13927;SDS011;7036;50.834;4.718;2023-06-14T12:00:25;7.03;;;4.13;;
13927;SDS011;7036;50.834;4.718;2023-06-14T12:02:55;13.63;;;4.77;;
13927;SDS011;7036;50.834;4.718;2023-06-14T12:05:20;12.27;;;4.43;;
13927;SDS011;7036;50.834;4.718;2023-06-14T12:07:45;16.40;;;3.87;;
13927;SDS011;7036;50.834;4.718;2023-06-14T12:10:13;4.70;;;3.47;;
13927;SDS011;7036;50.834;4.718;2023-06-14T12:12:39;6.33;;;3.90;;
13927;SDS011;7036;50.834;4.718;2023-06-14T12:15:07;12.23;;;4.83;;
13927;SDS011;7036;50.834;4.718;2023-06-14T12:17:34;11.73;;;4.30;;
13927;SDS011;7036;50.834;4.718;2023-06-14T12:20:09;6.47;;;3.67;;
13927;SDS011;7036;50.834;4.718;2023-06-14T12:22:37;8.37;;;3.70;;
13927;SDS011;7036;50.834;4.718;2023-06-14T12:25:04;6.17;;;3.30;;
13927;SDS011;7036;50.834;4.718;2023-06-14T12:27:31;4.63;;;3.33;;
13927;SDS011;7036;50.834;4.718;2023-06-14T12:30:01;3.73;;;2.83;;
13927;SDS011;7036;50.834;4.718;2023-06-14T12:32:27;5.43;;;2.93;;
13927;SDS011;7036;50.834;4.718;2023-06-14T12:34:54;3.90;;;3.07;;
13927;SDS011;7036;50.834;4.718;2023-06-14T12:37:21;5.57;;;3.40;;
13927;SDS011;7036;50.834;4.718;2023-06-14T12:39:48;7.13;;;3.13;;
13927;SDS011;7036;50.834;4.718;2023-06-14T12:42:15;3.97;;;2.90;;
13927;SDS011;7036;50.834;4.718;2023-06-14T12:44:42;5.10;;;3.23;;
13927;SDS011;7036;50.834;4.718;2023-06-14T12:47:09;4.37;;;3.13;;
13927;SDS011;7036;50.834;4.718;2023-06-14T12:49:37;6.40;;;3.10;;
13927;SDS011;7036;50.834;4.718;2023-06-14T12:52:03;10.10;;;4.03;;
13927;SDS011;7036;50.834;4.718;2023-06-14T12:54:32;12.00;;;4.77;;
13927;SDS011;7036;50.834;4.718;2023-06-14T12:56:59;8.00;;;3.70;;
13927;SDS011;7036;50.834;4.718;2023-06-14T12:59:25;17.97;;;4.30;;
13927;SDS011;7036;50.834;4.718;2023-06-14T13:01:53;9.33;;;3.33;;
13927;SDS011;7036;50.834;4.718;2023-06-14T13:04:20;9.77;;;3.53;;
13927;SDS011;7036;50.834;4.718;2023-06-14T13:06:47;9.47;;;3.10;;
13927;SDS011;7036;50.834;4.718;2023-06-14T13:09:14;13.20;;;3.30;;
13927;SDS011;7036;50.834;4.718;2023-06-14T13:11:41;4.33;;;3.00;;
13927;SDS011;7036;50.834;4.718;2023-06-14T13:14:08;8.50;;;3.00;;
13927;SDS011;7036;50.834;4.718;2023-06-14T13:16:35;5.27;;;2.60;;
13927;SDS011;7036;50.834;4.718;2023-06-14T13:19:02;5.10;;;2.93;;
13927;SDS011;7036;50.834;4.718;2023-06-14T13:21:29;5.47;;;2.70;;
13927;SDS011;7036;50.834;4.718;2023-06-14T13:23:56;6.27;;;2.80;;
13927;SDS011;7036;50.834;4.718;2023-06-14T13:26:23;9.30;;;3.13;;
13927;SDS011;7036;50.834;4.718;2023-06-14T13:28:50;6.60;;;2.57;;
13927;SDS011;7036;50.834;4.718;2023-06-14T13:31:17;7.40;;;2.30;;
13927;SDS011;7036;50.834;4.718;2023-06-14T13:33:44;4.33;;;2.60;;
13927;SDS011;7036;50.834;4.718;2023-06-14T13:36:11;5.87;;;2.73;;
13927;SDS011;7036;50.834;4.718;2023-06-14T13:38:42;5.17;;;2.33;;
13927;SDS011;7036;50.834;4.718;2023-06-14T13:41:09;7.77;;;2.70;;
13927;SDS011;7036;50.834;4.718;2023-06-14T13:43:38;6.20;;;2.27;;
13927;SDS011;7036;50.834;4.718;2023-06-14T13:46:05;2.70;;;2.50;;
13927;SDS011;7036;50.834;4.718;2023-06-14T13:48:32;6.67;;;2.97;;
13927;SDS011;7036;50.834;4.718;2023-06-14T13:50:59;3.00;;;2.23;;
13927;SDS011;7036;50.834;4.718;2023-06-14T13:53:26;4.77;;;2.47;;
13927;SDS011;7036;50.834;4.718;2023-06-14T13:56:02;3.80;;;1.83;;
13927;SDS011;7036;50.834;4.718;2023-06-14T13:58:29;9.73;;;2.33;;
13927;SDS011;7036;50.834;4.718;2023-06-14T14:00:57;2.47;;;2.13;;
13927;SDS011;7036;50.834;4.718;2023-06-14T14:03:24;3.90;;;2.50;;
13927;SDS011;7036;50.834;4.718;2023-06-14T14:05:51;4.83;;;2.30;;
13927;SDS011;7036;50.834;4.718;2023-06-14T14:08:18;1.93;;;1.77;;
13927;SDS011;7036;50.834;4.718;2023-06-14T14:10:45;5.50;;;2.27;;
13927;SDS011;7036;50.834;4.718;2023-06-14T14:13:19;9.97;;;2.50;;
13927;SDS011;7036;50.834;4.718;2023-06-14T14:15:43;4.60;;;2.27;;
13927;SDS011;7036;50.834;4.718;2023-06-14T14:18:10;7.03;;;2.03;;
13927;SDS011;7036;50.834;4.718;2023-06-14T14:20:40;2.83;;;1.67;;
13927;SDS011;7036;50.834;4.718;2023-06-14T14:23:13;3.07;;;1.87;;
13927;SDS011;7036;50.834;4.718;2023-06-14T14:25:40;3.63;;;2.17;;
13927;SDS011;7036;50.834;4.718;2023-06-14T14:28:08;2.80;;;1.97;;
13927;SDS011;7036;50.834;4.718;2023-06-14T14:30:36;2.20;;;1.90;;
13927;SDS011;7036;50.834;4.718;2023-06-14T14:33:03;2.67;;;1.50;;
13927;SDS011;7036;50.834;4.718;2023-06-14T14:35:31;2.60;;;1.60;;
13927;SDS011;7036;50.834;4.718;2023-06-14T14:37:57;2.83;;;1.93;;
13927;SDS011;7036;50.834;4.718;2023-06-14T14:40:24;3.77;;;1.90;;
13927;SDS011;7036;50.834;4.718;2023-06-14T14:43:00;4.30;;;1.90;;
13927;SDS011;7036;50.834;4.718;2023-06-14T14:45:24;5.43;;;2.13;;
13927;SDS011;7036;50.834;4.718;2023-06-14T14:47:56;4.97;;;1.90;;
13927;SDS011;7036;50.834;4.718;2023-06-14T14:50:26;5.33;;;1.73;;
13927;SDS011;7036;50.834;4.718;2023-06-14T14:52:53;3.80;;;1.87;;
13927;SDS011;7036;50.834;4.718;2023-06-14T14:55:22;5.43;;;2.17;;
13927;SDS011;7036;50.834;4.718;2023-06-14T14:57:48;5.57;;;2.00;;
13927;SDS011;7036;50.834;4.718;2023-06-14T15:00:16;2.23;;;1.47;;
13927;SDS011;7036;50.834;4.718;2023-06-14T15:02:44;3.77;;;1.73;;
13927;SDS011;7036;50.834;4.718;2023-06-14T15:05:13;2.87;;;1.90;;
13927;SDS011;7036;50.834;4.718;2023-06-14T15:07:42;2.27;;;1.93;;
13927;SDS011;7036;50.834;4.718;2023-06-14T15:10:09;3.10;;;1.63;;
13927;SDS011;7036;50.834;4.718;2023-06-14T15:12:38;5.63;;;2.37;;
13927;SDS011;7036;50.834;4.718;2023-06-14T15:15:06;4.47;;;2.07;;
13927;SDS011;7036;50.834;4.718;2023-06-14T15:17:43;2.23;;;2.03;;